Time;durP1;ratioP1;P1;durP2;ratioP2;P2;SDS_P1;SDS_P2;PMS_P1;PMS_P2;Temp;Humidity;BMP_temperature;BMP_pressure;BME280_temperature;BME280_humidity;BME280_pressure;Samples;Min_cycle;Max_cycle;Signal;HPM_P1;HPM_P2
2023/09/09 00:01:15;;;;;;;5.95;3.70;;;;;;;17.30;72.97;102035.91;5040561;28;20045;-75
2023/09/09 00:03:43;;;;;;;4.57;4.18;;;;;;;17.28;72.88;102037.72;5045843;28;20069;-79
2023/09/09 00:06:12;;;;;;;4.97;4.57;;;;;;;17.28;73.00;102035.06;5037768;28;20371;-79
2023/09/09 00:08:39;;;;;;;7.20;4.60;;;;;;;17.27;72.98;102032.47;5048830;28;20557;-79
2023/09/09 00:11:06;;;;;;;3.90;3.58;;;;;;;17.22;73.06;102027.31;5048493;28;20037;-79
2023/09/09 00:13:33;;;;;;;5.53;3.63;;;;;;;17.22;72.95;102029.09;5047295;28;20132;-78
2023/09/09 00:16:00;;;;;;;4.47;3.75;;;;;;;17.16;73.23;102027.47;5030657;28;20054;-78
2023/09/09 00:18:27;;;;;;;3.92;3.47;;;;;;;17.16;72.97;102032.75;5046571;28;20095;-79
2023/09/09 00:20:55;;;;;;;4.25;3.75;;;;;;;17.14;73.07;102031.94;5046408;28;20041;-79
2023/09/09 00:23:23;;;;;;;4.05;3.22;;;;;;;17.11;73.09;102029.38;5042194;28;20050;-80
2023/09/09 00:25:51;;;;;;;6.68;3.70;;;;;;;17.06;73.00;102025.97;5047053;28;20528;-79
2023/09/09 00:28:17;;;;;;;9.07;4.40;;;;;;;17.04;73.06;102026.00;5048355;28;20041;-80
2023/09/09 00:30:44;;;;;;;4.53;3.55;;;;;;;17.05;72.88;102027.75;5050975;28;20127;-79
2023/09/09 00:33:11;;;;;;;6.68;3.90;;;;;;;17.04;72.93;102033.06;5041165;28;20045;-80
2023/09/09 00:35:39;;;;;;;4.97;3.47;;;;;;;17.00;73.19;102027.00;5046533;28;20041;-80
2023/09/09 00:38:07;;;;;;;4.35;3.35;;;;;;;16.94;73.00;102023.66;5048031;28;20049;-80
2023/09/09 00:40:35;;;;;;;4.03;3.63;;;;;;;17.00;73.19;102036.69;5050253;28;20036;-79
2023/09/09 00:43:02;;;;;;;8.68;4.53;;;;;;;16.94;73.44;102031.56;5049810;28;20064;-79
2023/09/09 00:45:29;;;;;;;3.70;3.40;;;;;;;16.96;73.39;102040.28;5047942;28;20053;-79
2023/09/09 00:47:56;;;;;;;7.20;3.90;;;;;;;16.95;73.04;102033.28;5048953;28;20090;-80
2023/09/09 00:50:24;;;;;;;5.50;4.00;;;;;;;16.92;73.32;102034.22;5043432;28;20044;-79
2023/09/09 00:52:51;;;;;;;4.03;3.65;;;;;;;16.89;73.02;102026.41;5045416;28;20057;-79
2023/09/09 00:55:19;;;;;;;6.05;3.28;;;;;;;16.79;73.10;102017.84;5047555;28;20047;-79
2023/09/09 00:57:47;;;;;;;7.95;4.25;;;;;;;16.86;73.16;102026.47;5044539;28;20051;-80
2023/09/09 01:00:15;;;;;;;5.63;4.18;;;;;;;16.84;73.63;102025.63;5049265;28;20037;-78
2023/09/09 01:02:43;;;;;;;4.32;3.92;;;;;;;16.76;73.77;102023.22;5048323;28;20056;-79
2023/09/09 01:05:11;;;;;;;4.32;3.92;;;;;;;16.80;73.46;102037.19;5047735;28;20048;-80
2023/09/09 01:07:45;;;;;;;4.75;4.20;;;;;;;16.79;73.49;102038.97;5044534;28;20041;-79
2023/09/09 01:10:13;;;;;;;7.03;4.40;;;;;;;16.77;73.45;102037.25;5049095;28;20041;-80
2023/09/09 01:12:41;;;;;;;4.47;3.90;;;;;;;16.74;73.42;102035.53;5048617;28;20048;-80
2023/09/09 01:15:11;;;;;;;6.05;4.03;;;;;;;16.73;73.53;102033.78;5046542;28;20057;-80
2023/09/09 01:17:38;;;;;;;4.53;4.00;;;;;;;16.71;73.53;102034.75;5048682;28;20518;-80
2023/09/09 01:20:12;;;;;;;3.67;3.38;;;;;;;16.68;73.48;102033.03;5047592;28;20470;-80
2023/09/09 01:22:43;;;;;;;4.60;4.20;;;;;;;16.68;73.46;102029.50;5045286;28;20051;-80
2023/09/09 01:25:11;;;;;;;4.90;4.32;;;;;;;16.66;73.64;102031.34;5048414;28;20462;-80
2023/09/09 01:27:38;;;;;;;6.22;4.68;;;;;;;16.62;73.77;102025.25;5044979;28;20098;-79
2023/09/09 01:30:06;;;;;;;4.97;4.43;;;;;;;16.64;74.24;102028.72;5043056;28;20041;-80
2023/09/09 01:32:33;;;;;;;5.32;4.65;;;;;;;16.61;74.05;102024.38;5052595;28;20057;-78
2023/09/09 01:35:03;;;;;;;7.28;4.45;;;;;;;16.57;73.86;102027.16;5041196;28;20072;-76
2023/09/09 01:37:30;;;;;;;4.82;4.38;;;;;;;16.58;74.16;102031.50;5043785;28;20057;-76
2023/09/09 01:40:04;;;;;;;5.97;4.97;;;;;;;16.57;73.87;102021.88;5037431;28;20044;-76
2023/09/09 01:42:31;;;;;;;4.57;4.18;;;;;;;16.56;73.93;102025.41;5037609;28;20052;-76
2023/09/09 01:44:58;;;;;;;6.55;4.55;;;;;;;16.54;73.83;102027.22;5037476;28;20537;-76
2023/09/09 01:47:24;;;;;;;6.45;4.55;;;;;;;16.50;73.85;102022.91;5037244;28;20059;-76
2023/09/09 01:49:51;;;;;;;6.38;3.97;;;;;;;16.51;73.78;102022.03;5042621;28;20045;-76
2023/09/09 01:52:18;;;;;;;6.05;4.03;;;;;;;16.47;73.78;102020.34;5041288;28;20060;-77
2023/09/09 01:54:45;;;;;;;4.95;3.92;;;;;;;16.47;73.53;102022.97;5041811;28;20051;-77
2023/09/09 01:57:16;;;;;;;7.15;4.45;;;;;;;16.42;73.55;102012.53;5038025;28;20049;-77
2023/09/09 01:59:43;;;;;;;4.80;4.30;;;;;;;16.42;73.77;102023.97;5041992;28;20132;-78
2023/09/09 02:02:10;;;;;;;5.03;4.53;;;;;;;16.41;73.93;102026.63;5038160;28;20048;-76
2023/09/09 02:04:37;;;;;;;4.97;4.47;;;;;;;16.39;73.65;102016.13;5038701;28;20149;-76
2023/09/09 02:07:04;;;;;;;5.07;4.57;;;;;;;16.31;73.72;102009.28;5038251;28;20053;-76
2023/09/09 02:09:31;;;;;;;8.88;4.85;;;;;;;16.35;73.68;102019.72;5037800;28;20049;-76
2023/09/09 02:11:58;;;;;;;5.25;4.10;;;;;;;16.32;73.71;102022.44;5043759;28;21308;-79
2023/09/09 02:14:26;;;;;;;5.80;4.75;;;;;;;16.32;73.59;102017.16;5033307;28;20053;-76
2023/09/09 02:16:54;;;;;;;5.97;4.15;;;;;;;16.30;73.63;102021.59;5043810;28;20055;-76
2023/09/09 02:19:21;;;;;;;4.75;4.35;;;;;;;16.29;73.89;102017.22;5043666;28;20060;-77
2023/09/09 02:21:48;;;;;;;4.20;3.80;;;;;;;16.25;73.57;102010.28;5040256;28;20059;-82
2023/09/09 02:24:16;;;;;;;6.95;4.07;;;;;;;16.27;73.60;102021.66;5038571;28;20037;-76
2023/09/09 02:26:43;;;;;;;4.68;4.18;;;;;;;16.21;73.86;102008.63;5031288;28;20071;-76
2023/09/09 02:29:10;;;;;;;6.88;4.47;;;;;;;16.18;73.63;102013.97;5044746;28;20573;-77
2023/09/09 02:31:38;;;;;;;5.03;4.55;;;;;;;16.21;73.77;102011.25;5040824;28;20590;-76
2023/09/09 02:34:05;;;;;;;5.43;4.93;;;;;;;16.19;73.69;102027.13;5042557;28;20060;-76
2023/09/09 02:36:32;;;;;;;5.18;3.92;;;;;;;16.18;73.88;102016.59;5043694;28;20079;-76
2023/09/09 02:38:59;;;;;;;8.25;4.88;;;;;;;16.16;73.93;102023.66;5042976;28;20048;-75
2023/09/09 02:41:25;;;;;;;7.75;4.30;;;;;;;16.15;73.95;102020.16;5044542;28;20584;-76
2023/09/09 02:43:52;;;;;;;5.38;4.75;;;;;;;16.14;73.94;102018.44;5040640;28;20041;-76
2023/09/09 02:46:21;;;;;;;5.68;4.45;;;;;;;16.12;74.18;102024.63;5036010;28;20049;-77
2023/09/09 02:48:49;;;;;;;7.07;4.80;;;;;;;16.12;73.90;102024.63;5048822;28;20706;-76
2023/09/09 02:51:16;;;;;;;4.90;4.47;;;;;;;16.07;74.44;102021.22;5041195;28;20056;-76
2023/09/09 02:53:43;;;;;;;4.93;4.10;;;;;;;16.07;74.31;102027.38;5043625;28;20049;-76
2023/09/09 02:56:11;;;;;;;4.70;3.70;;;;;;;16.06;74.17;102027.41;5041789;28;20042;-76
2023/09/09 02:58:38;;;;;;;4.80;4.18;;;;;;;16.01;74.16;102021.38;5043816;28;20045;-77
2023/09/09 03:01:06;;;;;;;5.28;4.72;;;;;;;16.03;74.25;102023.06;5040365;28;20414;-77
2023/09/09 03:03:34;;;;;;;5.00;3.83;;;;;;;15.99;73.98;102024.00;5041553;28;20151;-77
2023/09/09 03:06:02;;;;;;;4.22;3.55;;;;;;;15.96;74.30;102019.69;5042294;28;20041;-76
2023/09/09 03:08:29;;;;;;;4.43;3.83;;;;;;;15.99;74.23;102026.66;5045307;28;20049;-76
2023/09/09 03:10:56;;;;;;;5.82;4.35;;;;;;;15.99;74.26;102028.44;5047326;28;20055;-76
2023/09/09 03:13:23;;;;;;;4.45;4.10;;;;;;;15.97;74.33;102036.38;5042832;28;20242;-76
2023/09/09 03:15:49;;;;;;;5.18;4.25;;;;;;;15.96;74.38;102035.50;5043267;28;20387;-76
2023/09/09 03:18:16;;;;;;;6.45;4.43;;;;;;;15.94;74.33;102034.69;5043039;28;20414;-76
2023/09/09 03:20:43;;;;;;;4.53;4.10;;;;;;;15.93;74.34;102022.38;5047971;28;20420;-76
2023/09/09 03:23:11;;;;;;;5.47;4.97;;;;;;;15.93;74.47;102024.16;5040171;28;20421;-76
2023/09/09 03:25:38;;;;;;;4.90;4.40;;;;;;;15.92;74.72;102028.56;5052270;28;20050;-77
2023/09/09 03:28:06;;;;;;;5.28;4.65;;;;;;;15.90;74.51;102027.72;5044737;28;20528;-77
2023/09/09 03:30:53;;;;;;;7.75;5.35;;;;;;;15.90;74.32;102027.72;5043585;28;20410;-76
2023/09/09 03:33:20;;;;;;;7.03;5.85;;;;;;;15.86;74.79;102023.41;5040937;28;20049;-75
2023/09/09 03:35:47;;;;;;;7.47;4.30;;;;;;;15.86;74.62;102031.31;5041939;28;20045;-75
2023/09/09 03:38:15;;;;;;;7.38;4.55;;;;;;;15.79;74.56;102011.25;5039743;28;20041;-76
2023/09/09 03:40:43;;;;;;;8.57;4.57;;;;;;;15.83;74.52;102028.75;5039755;28;20082;-74
2023/09/09 03:43:10;;;;;;;5.07;3.97;;;;;;;15.82;74.53;102021.72;5039964;28;20070;-75
2023/09/09 03:45:37;;;;;;;5.20;4.38;;;;;;;15.80;74.53;102031.44;5042341;28;20049;-75
2023/09/09 03:48:05;;;;;;;7.10;4.93;;;;;;;15.79;74.67;102020.94;5039765;28;20060;-75
2023/09/09 03:50:31;;;;;;;4.57;4.18;;;;;;;15.77;74.74;102013.06;5038285;28;20046;-74
2023/09/09 03:52:58;;;;;;;5.95;4.50;;;;;;;15.78;74.56;102016.56;5041664;28;20098;-74
2023/09/09 03:55:26;;;;;;;4.82;4.43;;;;;;;15.76;74.65;102015.72;5038123;28;20555;-73
2023/09/09 03:57:53;;;;;;;6.65;5.05;;;;;;;15.75;75.04;102025.41;5040714;28;20048;-73
2023/09/09 04:00:20;;;;;;;5.63;3.90;;;;;;;15.73;74.72;102017.53;5040715;28;20046;-73
2023/09/09 04:02:47;;;;;;;5.32;4.82;;;;;;;15.73;74.85;102024.56;5039094;28;20050;-73
2023/09/09 04:05:14;;;;;;;4.82;4.25;;;;;;;15.72;74.84;102028.09;5041987;28;20137;-74
2023/09/09 04:07:43;;;;;;;5.43;4.22;;;;;;;15.67;74.64;102019.38;5039079;28;20051;-73
2023/09/09 04:10:11;;;;;;;4.30;3.90;;;;;;;15.66;74.59;102015.03;5039922;28;20052;-73
2023/09/09 04:12:40;;;;;;;4.65;4.22;;;;;;;15.68;74.75;102027.31;5040686;28;20056;-73
2023/09/09 04:15:08;;;;;;;5.75;3.38;;;;;;;15.67;74.76;102029.91;5039709;28;20052;-74
2023/09/09 04:17:35;;;;;;;5.45;4.00;;;;;;;15.63;74.84;102015.09;5040938;28;20037;-73
2023/09/09 04:20:03;;;;;;;5.60;4.55;;;;;;;15.65;74.81;102021.16;5037955;28;20048;-73
2023/09/09 04:22:30;;;;;;;4.80;3.75;;;;;;;15.63;74.84;102026.50;5040443;28;20077;-75
2023/09/09 04:24:57;;;;;;;3.88;3.58;;;;;;;15.63;75.00;102023.84;5037463;28;20129;-73
2023/09/09 04:27:24;;;;;;;4.57;3.92;;;;;;;15.57;74.82;102010.81;5036789;28;20137;-73
2023/09/09 04:29:52;;;;;;;6.43;4.07;;;;;;;15.60;74.93;102016.00;5040491;28;20057;-73
2023/09/09 04:32:19;;;;;;;6.10;3.80;;;;;;;15.60;74.93;102023.06;5038524;28;20041;-73
2023/09/09 04:34:46;;;;;;;4.40;4.00;;;;;;;15.59;74.75;102026.56;5034270;28;20053;-73
2023/09/09 04:37:14;;;;;;;4.05;3.65;;;;;;;15.59;74.70;102029.19;5037162;28;20044;-73
2023/09/09 04:39:41;;;;;;;5.25;4.25;;;;;;;15.57;74.75;102020.44;5041561;28;20049;-73
2023/09/09 04:42:08;;;;;;;5.72;4.22;;;;;;;15.54;74.99;102021.41;5037733;28;20041;-73
2023/09/09 04:44:35;;;;;;;4.07;3.70;;;;;;;15.53;75.04;102020.50;5041409;28;20041;-76
2023/09/09 04:47:03;;;;;;;3.90;3.50;;;;;;;15.55;75.04;102017.00;5039501;28;20046;-76
2023/09/09 04:49:31;;;;;;;6.80;4.20;;;;;;;15.50;75.18;102015.31;5042395;28;20048;-77
2023/09/09 04:51:58;;;;;;;5.60;3.85;;;;;;;15.50;75.07;102017.94;5046557;28;20045;-76
2023/09/09 04:54:25;;;;;;;4.68;3.90;;;;;;;15.47;75.08;102011.88;5041119;28;20058;-76
2023/09/09 04:56:52;;;;;;;5.45;4.97;;;;;;;15.51;75.32;102024.06;5044573;28;20045;-77
2023/09/09 04:59:18;;;;;;;4.47;3.97;;;;;;;15.41;75.33;102004.94;5044155;28;20127;-76
2023/09/09 05:01:45;;;;;;;5.88;4.78;;;;;;;15.50;75.47;102025.84;5047178;28;20047;-76
2023/09/09 05:04:14;;;;;;;6.53;4.97;;;;;;;15.51;75.66;102026.69;5046840;28;20044;-79
2023/09/09 05:06:41;;;;;;;4.63;4.22;;;;;;;15.49;75.62;102021.47;5045925;28;20049;-79
2023/09/09 05:09:08;;;;;;;5.18;4.65;;;;;;;15.51;75.82;102024.06;5038143;28;20047;-79
2023/09/09 05:11:35;;;;;;;4.32;3.92;;;;;;;15.52;75.61;102031.09;5048909;28;20486;-80
2023/09/09 05:14:01;;;;;;;7.47;4.97;;;;;;;15.51;75.75;102031.97;5045292;28;20041;-79
2023/09/09 05:16:29;;;;;;;5.07;4.57;;;;;;;15.53;76.05;102030.19;5048058;28;20056;-79
2023/09/09 05:18:56;;;;;;;7.07;5.68;;;;;;;15.52;76.24;102017.91;5048769;28;20051;-79
2023/09/09 05:21:24;;;;;;;5.20;4.10;;;;;;;15.53;75.91;102015.25;5042281;28;20049;-79
2023/09/09 05:23:51;;;;;;;4.93;4.55;;;;;;;15.55;76.23;102017.00;5046365;28;20045;-79
2023/09/09 05:26:18;;;;;;;5.20;4.05;;;;;;;15.57;76.20;102020.44;5048181;28;20135;-79
2023/09/09 05:28:45;;;;;;;4.78;3.88;;;;;;;15.57;76.27;102013.44;5045549;28;20043;-79
2023/09/09 05:31:12;;;;;;;7.60;5.75;;;;;;;15.59;76.80;102016.03;5044121;28;20043;-80
2023/09/09 05:33:40;;;;;;;5.88;4.35;;;;;;;15.60;76.88;102015.16;5048222;28;20121;-79
2023/09/09 05:36:07;;;;;;;10.93;4.85;;;;;;;15.62;77.21;102013.34;5043663;28;20052;-77
2023/09/09 05:38:36;;;;;;;7.72;4.70;;;;;;;15.64;77.50;102022.09;5049451;28;20041;-84
2023/09/09 05:41:04;;;;;;;5.93;4.82;;;;;;;15.64;77.74;102017.69;5040229;28;20056;-77
2023/09/09 05:43:31;;;;;;;7.90;5.53;;;;;;;15.67;78.03;102017.59;5043830;28;20049;-77
2023/09/09 05:46:00;;;;;;;6.18;5.60;;;;;;;15.70;78.40;102020.22;5046851;28;20041;-76
2023/09/09 05:48:27;;;;;;;7.38;4.97;;;;;;;15.73;78.32;102021.94;5047939;28;20049;-77
2023/09/09 05:50:55;;;;;;;6.90;4.53;;;;;;;15.76;78.40;102016.59;5039644;28;20076;-76
2023/09/09 05:53:22;;;;;;;5.03;4.63;;;;;;;15.79;78.31;102021.78;5043844;28;20045;-76
2023/09/09 05:55:50;;;;;;;5.32;4.82;;;;;;;15.81;78.45;102019.16;5040782;28;20075;-76
2023/09/09 05:58:17;;;;;;;4.88;4.47;;;;;;;15.81;78.71;102014.72;5040081;28;20053;-77
2023/09/09 06:00:44;;;;;;;8.82;4.88;;;;;;;15.86;78.66;102009.38;5041315;28;20060;-77
2023/09/09 06:03:11;;;;;;;7.80;5.45;;;;;;;15.81;79.01;102003.34;5046357;28;20049;-77
2023/09/09 06:05:37;;;;;;;6.55;5.90;;;;;;;15.92;79.46;102012.75;5042286;28;20038;-77
2023/09/09 06:08:05;;;;;;;6.05;5.38;;;;;;;15.96;79.87;102009.13;5043605;28;20037;-77
2023/09/09 06:10:32;;;;;;;8.30;5.93;;;;;;;16.00;80.18;102012.59;5043343;28;20045;-77
2023/09/09 06:13:00;;;;;;;6.38;5.63;;;;;;;16.04;80.40;102016.03;5041512;28;20041;-73
2023/09/09 06:15:27;;;;;;;8.73;6.63;;;;;;;16.08;80.57;102010.66;5037275;28;20064;-73
2023/09/09 06:17:54;;;;;;;8.00;5.63;;;;;;;16.12;80.92;101999.13;5037831;28;20041;-74
2023/09/09 06:20:20;;;;;;;6.88;4.68;;;;;;;16.17;80.78;102009.59;5038401;28;21231;-74
2023/09/09 06:22:47;;;;;;;5.90;4.50;;;;;;;16.23;80.66;102011.22;5039828;28;20494;-73
2023/09/09 06:25:14;;;;;;;5.13;4.40;;;;;;;16.26;81.06;102012.03;5037222;28;20052;-74
2023/09/09 06:27:41;;;;;;;4.75;4.18;;;;;;;16.31;80.95;102007.53;5039236;28;20144;-73
2023/09/09 06:30:10;;;;;;;5.07;4.50;;;;;;;16.37;80.92;102014.44;5040348;28;20128;-72
2023/09/09 06:32:37;;;;;;;7.03;4.05;;;;;;;16.41;81.43;102011.66;5040151;28;20142;-73
2023/09/09 06:35:07;;;;;;;5.22;4.45;;;;;;;16.47;81.54;102015.06;5040523;28;20082;-73
2023/09/09 06:37:33;;;;;;;5.18;4.68;;;;;;;16.52;81.53;102013.19;5037168;28;20053;-73
2023/09/09 06:40:00;;;;;;;4.47;4.07;;;;;;;16.57;81.39;102017.47;5039376;28;20051;-73
2023/09/09 06:42:28;;;;;;;5.03;4.43;;;;;;;16.63;81.51;102022.59;5037866;28;20418;-73
2023/09/09 06:44:55;;;;;;;4.32;4.00;;;;;;;16.70;81.54;102020.66;5034709;28;20510;-73
2023/09/09 06:47:23;;;;;;;6.22;4.15;;;;;;;16.75;82.09;102025.84;5035712;28;20037;-72
2023/09/09 06:49:50;;;;;;;6.47;4.78;;;;;;;16.82;82.00;102020.41;5039156;28;20049;-74
2023/09/09 06:52:17;;;;;;;7.35;4.97;;;;;;;16.89;81.92;102022.91;5039571;28;20054;-73
2023/09/09 06:54:44;;;;;;;4.20;3.83;;;;;;;16.97;81.97;102026.22;5039004;28;20053;-73
2023/09/09 06:57:11;;;;;;;3.47;3.17;;;;;;;17.04;81.79;102027.78;5039494;28;20045;-74
2023/09/09 06:59:39;;;;;;;5.03;3.50;;;;;;;17.11;81.96;102023.22;5041563;28;20049;-73
2023/09/09 07:02:06;;;;;;;3.70;2.78;;;;;;;17.18;81.95;102023.00;5046359;28;20061;-73
2023/09/09 07:04:36;;;;;;;3.40;3.03;;;;;;;17.24;82.01;102024.63;5040304;28;20462;-74
2023/09/09 07:07:03;;;;;;;3.35;2.63;;;;;;;17.31;81.85;102031.50;5044452;28;20135;-73
2023/09/09 07:09:30;;;;;;;2.58;2.38;;;;;;;17.38;81.73;102025.13;5040665;28;20573;-73
2023/09/09 07:11:59;;;;;;;4.18;2.72;;;;;;;17.44;82.21;102032.88;5042250;28;20713;-73
2023/09/09 07:14:25;;;;;;;5.65;3.10;;;;;;;17.51;81.72;102033.59;5040337;28;20087;-73
2023/09/09 07:16:52;;;;;;;3.00;2.80;;;;;;;17.60;81.90;102035.13;5040804;28;20037;-73
2023/09/09 07:19:19;;;;;;;2.83;2.60;;;;;;;17.67;81.57;102029.63;5040260;28;20045;-74
2023/09/09 07:21:47;;;;;;;2.75;2.55;;;;;;;17.73;81.59;102032.09;5037843;28;20045;-74
2023/09/09 07:24:14;;;;;;;3.63;2.40;;;;;;;17.68;81.43;102010.19;5044697;28;20060;-75
2023/09/09 07:26:41;;;;;;;7.03;2.78;;;;;;;17.89;81.40;102031.66;5044148;28;20049;-75
2023/09/09 07:29:08;;;;;;;4.50;2.33;;;;;;;17.96;81.20;102036.75;5042846;28;20586;-75
2023/09/09 07:31:35;;;;;;;2.35;2.15;;;;;;;18.04;81.31;102033.84;5039065;28;20501;-75
2023/09/09 07:34:02;;;;;;;2.30;2.10;;;;;;;18.12;81.20;102031.84;5041007;28;20128;-75
2023/09/09 07:36:29;;;;;;;3.28;2.58;;;;;;;18.17;81.10;102029.94;5003944;28;20501;-76
2023/09/09 07:38:57;;;;;;;2.22;2.13;;;;;;;18.27;81.05;102030.53;5036903;28;20045;-75
2023/09/09 07:41:24;;;;;;;2.33;2.13;;;;;;;18.33;80.83;102030.34;5043355;28;20662;-76
2023/09/09 07:43:51;;;;;;;2.42;2.20;;;;;;;18.38;80.74;102024.91;5043680;28;20073;-77
2023/09/09 07:46:17;;;;;;;3.53;2.00;;;;;;;18.45;80.59;102031.75;5041085;28;20060;-76
2023/09/09 07:48:44;;;;;;;3.58;2.15;;;;;;;18.52;80.55;102027.13;5041705;28;20059;-76
2023/09/09 07:51:11;;;;;;;2.15;1.90;;;;;;;18.59;80.54;102031.31;5043853;28;20045;-76
2023/09/09 07:53:38;;;;;;;2.55;2.35;;;;;;;18.65;80.40;102034.63;5044327;28;20053;-75
2023/09/09 07:56:06;;;;;;;4.00;2.05;;;;;;;18.72;80.28;102022.03;5043648;28;20694;-76
2023/09/09 07:58:33;;;;;;;1.60;1.50;;;;;;;18.78;79.86;102031.59;5040986;28;20509;-75
2023/09/09 08:01:03;;;;;;;2.05;1.92;;;;;;;18.83;79.92;102027.88;5042241;28;20060;-76
2023/09/09 08:03:30;;;;;;;2.78;2.08;;;;;;;18.86;79.80;102026.91;5041942;28;20118;-76
2023/09/09 08:06:02;;;;;;;6.47;1.85;;;;;;;18.97;79.55;102037.16;5040897;28;20036;-76
2023/09/09 08:08:29;;;;;;;2.13;2.03;;;;;;;19.01;79.32;102039.66;5045856;28;20055;-76
2023/09/09 08:10:56;;;;;;;2.30;2.10;;;;;;;19.06;79.26;102032.41;5041133;28;20044;-77
2023/09/09 08:13:24;;;;;;;3.17;2.20;;;;;;;19.10;79.24;102036.69;5044349;28;20060;-77
2023/09/09 08:15:51;;;;;;;3.35;1.85;;;;;;;19.13;79.05;102032.22;5046829;28;20047;-76
2023/09/09 08:18:18;;;;;;;3.40;1.58;;;;;;;19.18;78.73;102040.84;5043682;28;20403;-77
2023/09/09 08:20:45;;;;;;;2.72;2.53;;;;;;;19.21;78.68;102041.63;5043208;28;20056;-76
2023/09/09 08:23:12;;;;;;;5.38;2.10;;;;;;;19.26;78.61;102039.66;5043779;28;20075;-76
2023/09/09 08:25:39;;;;;;;2.38;1.85;;;;;;;19.30;78.34;102040.44;5045092;28;20060;-76
2023/09/09 08:28:06;;;;;;;2.97;1.40;;;;;;;19.30;78.28;102035.16;5040017;28;20055;-77
2023/09/09 08:30:34;;;;;;;2.15;1.77;;;;;;;19.37;78.11;102038.44;5039041;28;20049;-76
2023/09/09 08:33:01;;;;;;;1.92;1.60;;;;;;;19.39;78.18;102033.97;5044117;28;20387;-80
2023/09/09 08:35:30;;;;;;;4.70;2.15;;;;;;;19.45;78.18;102031.94;5046669;28;20546;-80
2023/09/09 08:38:01;;;;;;;3.53;1.75;;;;;;;19.50;77.95;102030.00;5049040;28;20052;-80
2023/09/09 08:40:28;;;;;;;3.10;1.60;;;;;;;19.50;77.96;102023.84;5045136;28;20059;-80
2023/09/09 08:43:08;;;;;;;2.22;1.67;;;;;;;19.59;77.96;102028.81;5045073;28;20044;-80
2023/09/09 08:45:47;;;;;;;2.40;2.20;;;;;;;19.62;77.77;102025.19;5047137;28;20048;-79
2023/09/09 08:48:20;;;;;;;1.60;1.50;;;;;;;19.69;77.69;102024.06;5031319;28;20425;-79
2023/09/09 08:50:48;;;;;;;2.85;1.90;;;;;;;19.56;77.62;101991.81;5048787;28;20041;-80
2023/09/09 08:53:17;;;;;;;1.98;1.20;;;;;;;19.77;77.38;102027.28;5048032;28;20041;-79
2023/09/09 08:55:45;;;;;;;1.95;1.35;;;;;;;19.82;77.33;102022.69;5048018;28;20053;-80
2023/09/09 08:58:12;;;;;;;1.23;1.13;;;;;;;19.88;77.24;102021.59;5046513;28;20099;-80
2023/09/09 09:00:41;;;;;;;7.28;2.20;;;;;;;19.94;77.09;102024.88;5042218;28;20077;-79
2023/09/09 09:03:12;;;;;;;2.90;1.30;;;;;;;19.97;76.69;102021.25;5042658;28;20057;-80
2023/09/09 09:05:39;;;;;;;1.20;0.70;;;;;;;20.05;76.39;102026.25;5045902;28;20489;-79
2023/09/09 09:08:09;;;;;;;2.08;0.90;;;;;;;20.10;75.91;102026.97;5046138;28;20040;-80
2023/09/09 09:10:37;;;;;;;1.70;0.75;;;;;;;20.16;75.92;102022.28;5047969;28;20052;-80
2023/09/09 09:13:04;;;;;;;2.05;0.73;;;;;;;20.21;75.67;102019.44;5047157;28;20041;-80
2023/09/09 09:15:32;;;;;;;1.73;0.80;;;;;;;20.25;75.49;102018.41;5048861;28;20049;-80
2023/09/09 09:18:01;;;;;;;0.93;0.75;;;;;;;20.31;74.77;102010.19;5044828;28;20049;-79
2023/09/09 09:20:33;;;;;;;0.75;0.75;;;;;;;20.36;74.62;102012.66;5042975;28;20144;-80
2023/09/09 09:23:02;;;;;;;2.17;0.68;;;;;;;20.44;74.36;102014.09;5043202;28;20053;-78
2023/09/09 09:25:35;;;;;;;2.08;0.98;;;;;;;20.51;74.56;102016.50;5047907;28;20440;-78
2023/09/09 09:28:03;;;;;;;3.55;0.85;;;;;;;20.56;74.42;102004.78;5048791;28;20051;-79
2023/09/09 09:30:30;;;;;;;1.70;0.70;;;;;;;20.64;73.96;102009.81;5035049;28;20559;-78
2023/09/09 09:32:57;;;;;;;3.53;0.80;;;;;;;20.69;73.84;102001.63;5045656;28;20045;-79
2023/09/09 09:35:27;;;;;;;1.45;0.95;;;;;;;20.77;73.85;102015.47;5044271;28;20397;-79
2023/09/09 09:37:56;;;;;;;2.28;0.80;;;;;;;20.82;73.50;102006.38;5044885;28;20057;-79
2023/09/09 09:40:23;;;;;;;2.22;0.75;;;;;;;20.87;73.38;101998.22;5042823;28;20064;-79
2023/09/09 09:42:51;;;;;;;2.45;1.00;;;;;;;20.93;73.01;102005.06;5043924;28;20041;-73
2023/09/09 09:45:18;;;;;;;0.70;0.60;;;;;;;20.94;73.02;101994.34;5042009;28;20461;-73
2023/09/09 09:47:46;;;;;;;5.68;0.80;;;;;;;21.02;72.93;102002.00;5041381;28;20041;-73
2023/09/09 09:50:20;;;;;;;3.67;1.08;;;;;;;21.07;72.29;102000.03;5041147;28;20575;-73
2023/09/09 09:52:56;;;;;;;1.80;0.80;;;;;;;21.10;72.44;101994.59;5041270;28;20054;-75
2023/09/09 09:55:23;;;;;;;1.13;0.80;;;;;;;21.15;72.45;101997.06;5040946;28;20099;-73
2023/09/09 09:57:50;;;;;;;4.10;1.17;;;;;;;21.18;72.24;101992.47;5037795;28;20470;-74
2023/09/09 10:00:17;;;;;;;1.88;0.60;;;;;;;21.22;72.12;101994.03;5041807;28;20395;-74
2023/09/09 10:02:51;;;;;;;2.85;0.73;;;;;;;21.27;72.23;101997.38;5039953;28;20057;-74
2023/09/09 10:05:20;;;;;;;3.95;0.85;;;;;;;21.26;71.98;101985.03;5041594;28;20045;-73
2023/09/09 10:07:54;;;;;;;3.85;1.00;;;;;;;21.34;71.64;101993.53;5041520;28;20045;-73
2023/09/09 10:10:24;;;;;;;4.90;0.90;;;;;;;21.38;71.66;101988.97;5042943;28;20501;-73
2023/09/09 10:12:54;;;;;;;2.53;0.80;;;;;;;21.42;71.36;101995.00;5040155;28;20107;-73
2023/09/09 10:15:36;;;;;;;1.70;1.00;;;;;;;21.44;71.13;101990.47;5039788;28;20045;-73
2023/09/09 10:18:04;;;;;;;3.28;1.00;;;;;;;21.46;70.83;101992.13;5041167;28;20041;-73
2023/09/09 10:20:32;;;;;;;1.10;0.70;;;;;;;21.52;70.35;101996.31;5038254;28;20045;-73
2023/09/09 10:23:02;;;;;;;1.48;1.02;;;;;;;21.56;69.66;101998.75;5038799;28;20041;-73
2023/09/09 10:25:30;;;;;;;1.25;0.70;;;;;;;21.60;70.22;101995.94;5037887;28;20128;-73
2023/09/09 10:27:58;;;;;;;1.58;0.98;;;;;;;21.62;69.89;101989.63;5019784;28;20041;-73
2023/09/09 10:30:25;;;;;;;5.05;1.02;;;;;;;21.66;69.33;101993.91;5037902;28;20080;-73
2023/09/09 10:32:54;;;;;;;3.45;1.00;;;;;;;21.66;68.91;101982.38;5034648;28;20406;-76
2023/09/09 10:35:22;;;;;;;2.90;0.80;;;;;;;21.72;68.95;101998.06;5038456;28;20049;-77
2023/09/09 10:37:51;;;;;;;0.90;0.77;;;;;;;21.75;68.28;101998.78;5044674;28;20049;-80
2023/09/09 10:40:20;;;;;;;1.42;0.70;;;;;;;21.75;68.20;101992.59;5042021;28;20069;-77
2023/09/09 10:42:47;;;;;;;3.15;0.60;;;;;;;21.81;68.32;101991.47;5040498;28;20049;-76
2023/09/09 10:45:24;;;;;;;0.60;0.60;;;;;;;21.85;68.21;101998.34;5042731;28;20055;-78
2023/09/09 10:47:59;;;;;;;0.95;0.80;;;;;;;21.86;67.79;102000.97;5044028;28;20047;-77
2023/09/09 10:50:41;;;;;;;1.63;0.82;;;;;;;21.82;67.98;101995.84;5043852;28;20049;-76
2023/09/09 10:53:21;;;;;;;3.35;1.00;;;;;;;21.89;67.90;101995.50;5040418;28;20052;-74
2023/09/09 10:55:54;;;;;;;5.45;2.70;;;;;;;21.92;67.73;101999.81;5040934;28;20056;-74
2023/09/09 10:58:22;;;;;;;0.65;0.65;;;;;;;21.94;67.63;101992.59;5039005;28;20060;-74
2023/09/09 11:00:50;;;;;;;0.82;0.82;;;;;;;21.96;67.46;101991.59;5041243;28;20045;-75
2023/09/09 11:03:21;;;;;;;4.43;0.73;;;;;;;21.98;67.35;101988.88;5042066;28;20178;-75
2023/09/09 11:06:03;;;;;;;1.67;0.80;;;;;;;21.99;67.54;101987.94;5041623;28;20053;-76
2023/09/09 11:08:32;;;;;;;0.93;0.60;;;;;;;21.99;66.68;101979.94;5042444;28;20045;-74
2023/09/09 11:11:12;;;;;;;1.52;0.88;;;;;;;22.01;66.75;101984.25;5043295;28;20044;-74
2023/09/09 11:13:45;;;;;;;1.95;0.60;;;;;;;22.02;66.73;101985.13;5043503;28;20044;-74
2023/09/09 11:16:31;;;;;;;3.20;0.70;;;;;;;22.05;66.31;101979.66;5042545;28;20049;-75
2023/09/09 11:19:00;;;;;;;4.70;0.70;;;;;;;22.05;66.68;101982.31;5036654;28;20045;-74
2023/09/09 11:21:28;;;;;;;4.53;1.00;;;;;;;22.07;66.52;101977.78;5041204;28;20057;-74
2023/09/09 11:23:57;;;;;;;2.25;0.80;;;;;;;22.09;66.08;101975.06;5039989;28;20060;-74
2023/09/09 11:26:25;;;;;;;3.05;0.70;;;;;;;22.13;66.55;101977.50;5042195;28;20049;-74
2023/09/09 11:28:53;;;;;;;1.33;0.93;;;;;;;22.13;66.40;101977.50;5040157;28;20135;-74